sensor_id;sensor_type;location;lat;lon;timestamp;pressure;altitude;pressure_sealevel;temperature;humidity
69524;BME280;56723;42.694;23.286;2023-05-19T08:25:25;95346.00;;;16.94;72.35
69524;BME280;56723;42.694;23.286;2023-05-19T08:27:52;95346.66;;;17.03;71.62
69524;BME280;56723;42.694;23.286;2023-05-19T08:30:19;95337.81;;;17.17;69.27
69524;BME280;56723;42.694;23.286;2023-05-19T08:32:46;95333.00;;;17.20;66.96
69524;BME280;56723;42.694;23.286;2023-05-19T08:35:14;95337.59;;;17.12;67.56
69524;BME280;56723;42.694;23.286;2023-05-19T08:37:41;95339.81;;;17.02;69.13
69524;BME280;56723;42.694;23.286;2023-05-19T08:40:15;95339.41;;;17.05;67.71
69524;BME280;56723;42.694;23.286;2023-05-19T08:42:44;95333.50;;;16.89;67.07
69524;BME280;56723;42.694;23.286;2023-05-19T08:45:11;95338.16;;;16.87;68.62
69524;BME280;56723;42.694;23.286;2023-05-19T08:47:40;95335.56;;;17.01;68.90
69524;BME280;56723;42.694;23.286;2023-05-19T08:50:10;95326.16;;;17.19;67.20
69524;BME280;56723;42.694;23.286;2023-05-19T08:53:19;95331.22;;;17.34;69.36
69524;BME280;56723;42.694;23.286;2023-05-19T08:56:20;95335.06;;;17.51;67.16
69524;BME280;56723;42.694;23.286;2023-05-19T08:58:49;95330.47;;;17.67;65.87
69524;BME280;56723;42.694;23.286;2023-05-19T09:01:18;95337.31;;;17.87;64.79
69524;BME280;56723;42.694;23.286;2023-05-19T09:03:46;95325.63;;;17.70;62.92
69524;BME280;56723;42.694;23.286;2023-05-19T09:06:16;95324.03;;;17.76;63.69
69524;BME280;56723;42.694;23.286;2023-05-19T09:08:43;95330.28;;;17.94;64.82
69524;BME280;56723;42.694;23.286;2023-05-19T09:11:10;95313.50;;;18.02;63.50
69524;BME280;56723;42.694;23.286;2023-05-19T09:13:38;95316.31;;;18.20;64.68
69524;BME280;56723;42.694;23.286;2023-05-19T09:16:05;95326.38;;;18.37;63.49
69524;BME280;56723;42.694;23.286;2023-05-19T09:18:32;95315.44;;;18.40;61.05
69524;BME280;56723;42.694;23.286;2023-05-19T09:21:00;95311.19;;;18.52;62.02
69524;BME280;56723;42.694;23.286;2023-05-19T09:23:32;95312.78;;;18.66;61.65
69524;BME280;56723;42.694;23.286;2023-05-19T09:26:03;95310.09;;;18.79;59.95
69524;BME280;56723;42.694;23.286;2023-05-19T09:28:34;95308.88;;;18.82;60.38
69524;BME280;56723;42.694;23.286;2023-05-19T09:31:09;95307.44;;;18.92;59.22
69524;BME280;56723;42.694;23.286;2023-05-19T09:33:38;95296.66;;;19.00;59.95
69524;BME280;56723;42.694;23.286;2023-05-19T09:36:10;95299.06;;;19.09;57.79
69524;BME280;56723;42.694;23.286;2023-05-19T09:38:38;95300.59;;;19.23;57.26
69524;BME280;56723;42.694;23.286;2023-05-19T09:41:06;95302.91;;;19.37;56.99
69524;BME280;56723;42.694;23.286;2023-05-19T09:43:34;95304.09;;;19.42;56.35
69524;BME280;56723;42.694;23.286;2023-05-19T09:46:08;95295.94;;;19.56;56.30
69524;BME280;56723;42.694;23.286;2023-05-19T09:48:40;95299.00;;;19.78;54.47
69524;BME280;56723;42.694;23.286;2023-05-19T09:51:08;95284.72;;;19.92;53.83
69524;BME280;56723;42.694;23.286;2023-05-19T09:53:37;95300.16;;;20.07;54.00
69524;BME280;56723;42.694;23.286;2023-05-19T09:56:07;95289.66;;;20.25;53.96
69524;BME280;56723;42.694;23.286;2023-05-19T09:58:34;95295.97;;;20.43;52.36
69524;BME280;56723;42.694;23.286;2023-05-19T10:01:03;95285.38;;;20.67;52.67
69524;BME280;56723;42.694;23.286;2023-05-19T10:03:30;95288.38;;;21.01;52.79
69524;BME280;56723;42.694;23.286;2023-05-19T10:06:02;95274.56;;;21.05;48.53
69524;BME280;56723;42.694;23.286;2023-05-19T10:08:31;95283.34;;;20.99;49.31
69524;BME280;56723;42.694;23.286;2023-05-19T10:10:59;95281.63;;;20.93;49.93
69524;BME280;56723;42.694;23.286;2023-05-19T10:13:28;95278.34;;;20.61;50.14
69524;BME280;56723;42.694;23.286;2023-05-19T10:15:56;95272.78;;;20.69;49.95
69524;BME280;56723;42.694;23.286;2023-05-19T10:18:26;95273.28;;;20.96;49.96
69524;BME280;56723;42.694;23.286;2023-05-19T10:20:56;95272.06;;;21.11;48.33
69524;BME280;56723;42.694;23.286;2023-05-19T10:23:25;95276.81;;;21.20;49.79
69524;BME280;56723;42.694;23.286;2023-05-19T10:25:55;95275.28;;;21.13;46.67
69524;BME280;56723;42.694;23.286;2023-05-19T10:28:24;95261.56;;;21.22;46.46
69524;BME280;56723;42.694;23.286;2023-05-19T10:30:57;95264.72;;;21.42;46.32
69524;BME280;56723;42.694;23.286;2023-05-19T10:33:46;95258.44;;;21.55;46.54
69524;BME280;56723;42.694;23.286;2023-05-19T10:39:05;95260.50;;;21.76;44.00
69524;BME280;56723;42.694;23.286;2023-05-19T10:44:15;95261.66;;;22.27;43.76
69524;BME280;56723;42.694;23.286;2023-05-19T10:46:47;95261.09;;;21.78;42.68
69524;BME280;56723;42.694;23.286;2023-05-19T10:49:21;95251.31;;;21.56;43.94
69524;BME280;56723;42.694;23.286;2023-05-19T10:51:51;95240.81;;;21.67;43.64
69524;BME280;56723;42.694;23.286;2023-05-19T10:54:41;95247.66;;;21.92;44.69
69524;BME280;56723;42.694;23.286;2023-05-19T10:57:12;95247.13;;;22.01;41.87
69524;BME280;56723;42.694;23.286;2023-05-19T10:59:39;95251.03;;;22.10;41.74
69524;BME280;56723;42.694;23.286;2023-05-19T11:02:07;95242.91;;;22.00;41.33
69524;BME280;56723;42.694;23.286;2023-05-19T11:04:56;95250.53;;;21.90;41.05
69524;BME280;56723;42.694;23.286;2023-05-19T11:07:33;95242.88;;;21.89;42.32
69524;BME280;56723;42.694;23.286;2023-05-19T11:10:04;95240.94;;;22.19;40.96
69524;BME280;56723;42.694;23.286;2023-05-19T11:12:44;95229.88;;;22.34;39.90
69524;BME280;56723;42.694;23.286;2023-05-19T11:15:13;95237.28;;;22.49;39.01
69524;BME280;56723;42.694;23.286;2023-05-19T11:17:41;95243.25;;;22.56;39.47
69524;BME280;56723;42.694;23.286;2023-05-19T11:20:24;95249.88;;;22.70;39.03
69524;BME280;56723;42.694;23.286;2023-05-19T11:23:24;95236.69;;;22.82;38.38
69524;BME280;56723;42.694;23.286;2023-05-19T11:25:51;95235.72;;;22.76;37.63
69524;BME280;56723;42.694;23.286;2023-05-19T11:28:22;95233.78;;;22.31;38.33
69524;BME280;56723;42.694;23.286;2023-05-19T11:30:55;95230.91;;;22.44;37.91
69524;BME280;56723;42.694;23.286;2023-05-19T11:33:25;95224.72;;;22.67;39.10
69524;BME280;56723;42.694;23.286;2023-05-19T11:35:56;95229.13;;;22.62;37.33
69524;BME280;56723;42.694;23.286;2023-05-19T11:38:25;95222.72;;;22.46;38.07
69524;BME280;56723;42.694;23.286;2023-05-19T11:40:53;95226.31;;;22.28;39.40
69524;BME280;56723;42.694;23.286;2023-05-19T11:43:24;95225.91;;;21.85;40.48
69524;BME280;56723;42.694;23.286;2023-05-19T11:45:52;95230.09;;;21.39;40.70
69524;BME280;56723;42.694;23.286;2023-05-19T11:48:20;95230.44;;;21.31;41.04
69524;BME280;56723;42.694;23.286;2023-05-19T11:50:48;95229.44;;;21.14;41.08
69524;BME280;56723;42.694;23.286;2023-05-19T11:53:16;95238.59;;;20.81;43.29
69524;BME280;56723;42.694;23.286;2023-05-19T11:55:46;95234.69;;;20.72;42.57
69524;BME280;56723;42.694;23.286;2023-05-19T11:58:14;95240.69;;;20.61;42.60
69524;BME280;56723;42.694;23.286;2023-05-19T12:00:43;95241.16;;;20.39;44.84
69524;BME280;56723;42.694;23.286;2023-05-19T12:03:11;95249.59;;;20.23;47.51
69524;BME280;56723;42.694;23.286;2023-05-19T12:05:43;95254.72;;;20.00;47.15
69524;BME280;56723;42.694;23.286;2023-05-19T12:08:12;95271.09;;;19.52;49.56
69524;BME280;56723;42.694;23.286;2023-05-19T12:10:40;95263.88;;;19.41;51.01
69524;BME280;56723;42.694;23.286;2023-05-19T12:13:07;95277.56;;;19.18;52.53
69524;BME280;56723;42.694;23.286;2023-05-19T12:15:37;95299.38;;;18.87;53.83
69524;BME280;56723;42.694;23.286;2023-05-19T12:18:05;95308.75;;;18.57;57.22
69524;BME280;56723;42.694;23.286;2023-05-19T12:20:32;95318.38;;;17.98;61.61
69524;BME280;56723;42.694;23.286;2023-05-19T12:23:02;95332.03;;;17.54;66.02
69524;BME280;56723;42.694;23.286;2023-05-19T12:25:30;95322.28;;;17.02;69.33
69524;BME280;56723;42.694;23.286;2023-05-19T12:27:59;95320.41;;;16.42;73.55
69524;BME280;56723;42.694;23.286;2023-05-19T12:30:29;95321.31;;;15.93;76.89
69524;BME280;56723;42.694;23.286;2023-05-19T12:32:58;95324.69;;;15.44;76.38
69524;BME280;56723;42.694;23.286;2023-05-19T12:35:29;95307.28;;;15.09;79.06
69524;BME280;56723;42.694;23.286;2023-05-19T12:38:05;95315.44;;;14.99;78.63
69524;BME280;56723;42.694;23.286;2023-05-19T12:40:33;95311.66;;;15.02;78.20
69524;BME280;56723;42.694;23.286;2023-05-19T12:43:02;95299.59;;;15.01;77.83
69524;BME280;56723;42.694;23.286;2023-05-19T12:45:34;95290.28;;;15.13;77.76
69524;BME280;56723;42.694;23.286;2023-05-19T12:48:03;95290.03;;;15.29;75.03
69524;BME280;56723;42.694;23.286;2023-05-19T12:50:31;95285.16;;;15.47;72.09
69524;BME280;56723;42.694;23.286;2023-05-19T12:53:00;95274.53;;;15.70;69.17
69524;BME280;56723;42.694;23.286;2023-05-19T12:55:28;95276.69;;;15.95;67.03
69524;BME280;56723;42.694;23.286;2023-05-19T12:57:56;95262.72;;;16.15;65.48
69524;BME280;56723;42.694;23.286;2023-05-19T13:00:24;95253.16;;;16.36;61.80
69524;BME280;56723;42.694;23.286;2023-05-19T13:03:09;95261.72;;;16.57;60.78
69524;BME280;56723;42.694;23.286;2023-05-19T13:05:42;95260.19;;;16.70;59.17
69524;BME280;56723;42.694;23.286;2023-05-19T13:08:11;95252.91;;;16.72;58.27
69524;BME280;56723;42.694;23.286;2023-05-19T13:10:40;95255.38;;;16.80;56.68
69524;BME280;56723;42.694;23.286;2023-05-19T13:13:07;95252.56;;;16.94;56.78
69524;BME280;56723;42.694;23.286;2023-05-19T13:15:37;95248.59;;;17.05;54.71
69524;BME280;56723;42.694;23.286;2023-05-19T13:18:08;95245.59;;;17.21;50.86
69524;BME280;56723;42.694;23.286;2023-05-19T13:20:36;95247.78;;;17.31;53.93
69524;BME280;56723;42.694;23.286;2023-05-19T13:23:04;95243.78;;;17.42;53.10
69524;BME280;56723;42.694;23.286;2023-05-19T13:25:32;95237.72;;;17.54;52.29
69524;BME280;56723;42.694;23.286;2023-05-19T13:28:01;95246.59;;;17.67;52.41
69524;BME280;56723;42.694;23.286;2023-05-19T13:30:32;95245.81;;;17.79;52.07
69524;BME280;56723;42.694;23.286;2023-05-19T13:33:00;95250.63;;;17.89;53.04
69524;BME280;56723;42.694;23.286;2023-05-19T13:35:27;95248.56;;;18.11;51.30
69524;BME280;56723;42.694;23.286;2023-05-19T13:37:54;95248.75;;;18.09;50.71
69524;BME280;56723;42.694;23.286;2023-05-19T13:40:22;95245.28;;;18.22;50.52
69524;BME280;56723;42.694;23.286;2023-05-19T13:42:49;95238.75;;;18.38;50.46
69524;BME280;56723;42.694;23.286;2023-05-19T13:45:16;95246.28;;;18.21;50.58
69524;BME280;56723;42.694;23.286;2023-05-19T13:47:44;95243.88;;;18.26;51.67
69524;BME280;56723;42.694;23.286;2023-05-19T13:50:11;95244.41;;;18.41;51.51
69524;BME280;56723;42.694;23.286;2023-05-19T13:52:38;95249.38;;;18.56;51.38
69524;BME280;56723;42.694;23.286;2023-05-19T13:55:06;95238.28;;;18.67;51.74
69524;BME280;56723;42.694;23.286;2023-05-19T13:57:33;95241.53;;;18.62;49.41
69524;BME280;56723;42.694;23.286;2023-05-19T14:00:01;95251.63;;;18.59;50.60
69524;BME280;56723;42.694;23.286;2023-05-19T14:02:39;95242.00;;;18.40;51.80
69524;BME280;56723;42.694;23.286;2023-05-19T14:05:07;95240.84;;;18.22;48.93
69524;BME280;56723;42.694;23.286;2023-05-19T14:07:34;95248.31;;;18.25;50.71
69524;BME280;56723;42.694;23.286;2023-05-19T14:10:02;95232.34;;;18.27;51.52
69524;BME280;56723;42.694;23.286;2023-05-19T14:12:31;95243.19;;;18.44;49.32
69524;BME280;56723;42.694;23.286;2023-05-19T14:15:09;95239.09;;;18.61;50.00
69524;BME280;56723;42.694;23.286;2023-05-19T14:17:37;95232.41;;;18.72;47.67
69524;BME280;56723;42.694;23.286;2023-05-19T14:20:04;95227.19;;;18.96;46.99
69524;BME280;56723;42.694;23.286;2023-05-19T14:22:32;95240.75;;;19.25;46.13
69524;BME280;56723;42.694;23.286;2023-05-19T14:24:58;95231.06;;;19.50;45.95
69524;BME280;56723;42.694;23.286;2023-05-19T14:27:26;95237.09;;;19.57;43.74
69524;BME280;56723;42.694;23.286;2023-05-19T14:29:53;95234.22;;;19.34;44.40
69524;BME280;56723;42.694;23.286;2023-05-19T14:32:21;95231.13;;;19.12;43.95
69524;BME280;56723;42.694;23.286;2023-05-19T14:34:48;95240.28;;;19.03;46.74
69524;BME280;56723;42.694;23.286;2023-05-19T14:37:19;95244.06;;;19.14;44.67
69524;BME280;56723;42.694;23.286;2023-05-19T14:39:46;95240.00;;;19.18;45.22
69524;BME280;56723;42.694;23.286;2023-05-19T14:42:13;95240.28;;;19.34;45.42
69524;BME280;56723;42.694;23.286;2023-05-19T14:44:40;95241.47;;;19.38;43.35
69524;BME280;56723;42.694;23.286;2023-05-19T14:47:07;95244.69;;;19.41;43.51
69524;BME280;56723;42.694;23.286;2023-05-19T14:49:37;95236.50;;;19.49;44.30
69524;BME280;56723;42.694;23.286;2023-05-19T14:52:04;95247.44;;;19.52;42.80
69524;BME280;56723;42.694;23.286;2023-05-19T14:54:31;95248.25;;;19.53;44.26
69524;BME280;56723;42.694;23.286;2023-05-19T14:56:58;95249.97;;;19.65;42.92
69524;BME280;56723;42.694;23.286;2023-05-19T14:59:26;95246.72;;;19.88;43.25
69524;BME280;56723;42.694;23.286;2023-05-19T15:01:53;95250.66;;;20.22;41.66
69524;BME280;56723;42.694;23.286;2023-05-19T15:04:20;95259.66;;;20.51;41.78
69524;BME280;56723;42.694;23.286;2023-05-19T15:06:47;95255.44;;;20.80;41.51
69524;BME280;56723;42.694;23.286;2023-05-19T15:09:34;95252.94;;;21.15;41.16
69524;BME280;56723;42.694;23.286;2023-05-19T15:12:02;95246.13;;;21.37;40.12
69524;BME280;56723;42.694;23.286;2023-05-19T15:14:29;95254.19;;;21.54;39.62
69524;BME280;56723;42.694;23.286;2023-05-19T15:16:57;95251.22;;;21.74;38.45
69524;BME280;56723;42.694;23.286;2023-05-19T15:19:24;95247.56;;;21.87;37.67
69524;BME280;56723;42.694;23.286;2023-05-19T15:21:52;95249.09;;;22.06;37.50
69524;BME280;56723;42.694;23.286;2023-05-19T15:24:19;95247.69;;;22.15;37.46
69524;BME280;56723;42.694;23.286;2023-05-19T15:26:47;95243.56;;;22.19;37.54
69524;BME280;56723;42.694;23.286;2023-05-19T15:29:14;95245.38;;;22.30;36.75
69524;BME280;56723;42.694;23.286;2023-05-19T15:31:41;95237.44;;;22.30;37.36
69524;BME280;56723;42.694;23.286;2023-05-19T15:34:08;95242.72;;;22.42;37.84
69524;BME280;56723;42.694;23.286;2023-05-19T15:36:35;95239.41;;;22.35;37.87
69524;BME280;56723;42.694;23.286;2023-05-19T15:39:02;95241.03;;;22.24;38.16
69524;BME280;56723;42.694;23.286;2023-05-19T15:41:29;95242.22;;;22.05;37.72
69524;BME280;56723;42.694;23.286;2023-05-19T15:43:56;95252.41;;;22.01;38.37
69524;BME280;56723;42.694;23.286;2023-05-19T15:46:26;95256.03;;;21.77;38.77
69524;BME280;56723;42.694;23.286;2023-05-19T15:48:54;95256.50;;;21.51;38.13
69524;BME280;56723;42.694;23.286;2023-05-19T15:51:22;95255.53;;;21.33;38.75
69524;BME280;56723;42.694;23.286;2023-05-19T15:53:49;95259.00;;;21.16;39.25
69524;BME280;56723;42.694;23.286;2023-05-19T15:56:17;95257.78;;;21.00;40.17
69524;BME280;56723;42.694;23.286;2023-05-19T15:58:45;95264.50;;;20.84;40.83
69524;BME280;56723;42.694;23.286;2023-05-19T16:01:13;95254.44;;;20.63;41.45
69524;BME280;56723;42.694;23.286;2023-05-19T16:03:41;95260.44;;;20.52;42.47
69524;BME280;56723;42.694;23.286;2023-05-19T16:06:10;95263.94;;;20.27;42.43
69524;BME280;56723;42.694;23.286;2023-05-19T16:08:37;95258.81;;;20.14;42.91
69524;BME280;56723;42.694;23.286;2023-05-19T16:11:04;95261.59;;;20.01;43.75
69524;BME280;56723;42.694;23.286;2023-05-19T16:13:31;95257.59;;;19.92;44.71
69524;BME280;56723;42.694;23.286;2023-05-19T16:15:59;95255.28;;;19.84;44.98
69524;BME280;56723;42.694;23.286;2023-05-19T16:18:26;95256.56;;;19.75;45.16
69524;BME280;56723;42.694;23.286;2023-05-19T16:20:56;95259.47;;;19.66;45.56
69524;BME280;56723;42.694;23.286;2023-05-19T16:23:23;95255.91;;;19.54;46.58
69524;BME280;56723;42.694;23.286;2023-05-19T16:25:52;95253.34;;;19.48;46.64
69524;BME280;56723;42.694;23.286;2023-05-19T16:28:20;95260.16;;;19.55;47.23
69524;BME280;56723;42.694;23.286;2023-05-19T16:30:50;95258.94;;;19.83;46.34
69524;BME280;56723;42.694;23.286;2023-05-19T16:33:17;95257.03;;;20.08;45.56
69524;BME280;56723;42.694;23.286;2023-05-19T16:35:44;95257.22;;;20.31;44.55
69524;BME280;56723;42.694;23.286;2023-05-19T16:38:11;95257.97;;;20.57;44.55
69524;BME280;56723;42.694;23.286;2023-05-19T16:40:39;95256.22;;;20.81;43.51
69524;BME280;56723;42.694;23.286;2023-05-19T16:43:06;95272.22;;;20.97;43.54
69524;BME280;56723;42.694;23.286;2023-05-19T16:45:33;95267.41;;;20.94;44.20
69524;BME280;56723;42.694;23.286;2023-05-19T16:48:00;95267.56;;;20.81;45.83
69524;BME280;56723;42.694;23.286;2023-05-19T16:50:27;95263.13;;;20.63;45.61
69524;BME280;56723;42.694;23.286;2023-05-19T16:52:55;95263.22;;;20.57;45.56
69524;BME280;56723;42.694;23.286;2023-05-19T16:55:22;95258.56;;;20.59;44.55
69524;BME280;56723;42.694;23.286;2023-05-19T16:57:51;95266.16;;;20.49;45.13
69524;BME280;56723;42.694;23.286;2023-05-19T17:02:28;95246.94;;;20.05;45.11
